Dresden, Tennessee
Current Conditions -  °F | °C
As of 8:55 AM on Monday 24 Nov 2014 (Local Time) from KUCY Reporting Station
Overcast Overcast  
Wind Chill: 37°   Ceiling: 3300
Heat Index: 45°   Visibility: 10mi
Dew Point: 36°   Wind: 16mph
Humidity: 71%   Direction: 260°W
Pressure: 29.75"   Gusts: NA
Location:  36.29°N, 88.71°W
Report Text: KUCY 241455Z AUTO 26014KT 10SM OVC033 07/02 A2975 RMK
Loading
Personal Weather Stations






























Interactive Weather Map New forecast layout! Learn more

10-Day Weather Forecast

Advertisements
Track Severe Weather on mobile